Time,TemperatureF,DewpointF,PressureIn,WindDirection,WindDirectionDegrees,WindSpeedMPH,WindSpeedGustMPH,Humidity,HourlyPrecipIn,Conditions,Clouds,dailyrainin,SoftwareType,DateUTC
2013-03-06 00:00:00,24.4,17.6,30.10,SE,135,0.0,0.0,75,0.00,,---,0.00,VWS V14.01,2013-03-06 05:00:00,
2013-03-06 00:05:00,24.0,17.2,30.10,SE,135,0.0,0.0,75,0.00,,---,0.00,VWS V14.01,2013-03-06 05:05:00,
2013-03-06 00:10:00,24.0,17.2,30.09,SE,135,0.0,0.0,75,0.00,,---,0.00,VWS V14.01,2013-03-06 05:10:00,
2013-03-06 00:15:00,23.9,17.1,30.09,SE,135,0.0,0.0,75,0.00,,---,0.00,VWS V14.01,2013-03-06 05:15:00,
2013-03-06 00:20:00,23.7,17.0,30.09,SE,135,0.0,0.0,75,0.00,,---,0.00,VWS V14.01,2013-03-06 05:20:00,
2013-03-06 00:25:00,23.5,16.8,30.09,SE,135,0.0,0.0,75,0.00,,---,0.00,VWS V14.01,2013-03-06 05:25:00,
2013-03-06 00:30:00,23.3,16.2,30.09,SE,135,0.0,0.0,74,0.00,,---,0.00,VWS V14.01,2013-03-06 05:30:00,
2013-03-06 00:35:00,23.1,16.1,30.09,SE,135,0.0,0.0,74,0.00,,---,0.00,VWS V14.01,2013-03-06 05:35:00,
2013-03-06 00:40:00,23.1,16.1,30.09,SE,135,0.0,0.0,74,0.00,,---,0.00,VWS V14.01,2013-03-06 05:40:00,
2013-03-06 00:45:00,23.0,16.0,30.09,SE,135,0.0,0.0,74,0.00,,---,0.00,VWS V14.01,2013-03-06 05:45:00,
2013-03-06 00:50:00,22.8,15.8,30.09,SE,135,0.0,0.0,74,0.00,,---,0.00,VWS V14.01,2013-03-06 05:50:00,
2013-03-06 00:55:00,22.6,15.6,30.09,SE,135,0.0,0.0,74,0.00,,---,0.00,VWS V14.01,2013-03-06 05:55:00,
2013-03-06 01:00:00,22.6,15.6,30.09,SE,135,0.0,0.0,74,0.00,,---,0.00,VWS V14.01,2013-03-06 06:00:00,
2013-03-06 01:05:00,22.6,15.6,30.09,SE,135,0.0,0.0,74,0.00,,---,0.00,VWS V14.01,2013-03-06 06:05:00,
2013-03-06 01:10:00,22.4,15.4,30.09,SE,135,0.0,0.0,74,0.00,,---,0.00,VWS V14.01,2013-03-06 06:10:00,
2013-03-06 01:15:00,22.4,15.4,30.09,SE,135,0.0,0.0,74,0.00,,---,0.00,VWS V14.01,2013-03-06 06:15:00,
2013-03-06 01:20:00,21.9,14.9,30.09,SE,135,0.0,0.0,74,0.00,,---,0.00,VWS V14.01,2013-03-06 06:20:00,
2013-03-06 01:25:00,21.9,14.9,30.09,SE,135,0.0,0.0,74,0.00,,---,0.00,VWS V14.01,2013-03-06 06:25:00,
2013-03-06 01:30:00,21.7,14.7,30.09,SE,135,0.0,0.0,74,0.00,,---,0.00,VWS V14.01,2013-03-06 06:30:00,
2013-03-06 01:35:00,21.5,14.8,30.09,SE,135,0.0,0.0,75,0.00,,---,0.00,VWS V14.01,2013-03-06 06:35:00,
2013-03-06 01:40:00,21.3,14.6,30.09,SE,135,0.0,0.0,75,0.00,,---,0.00,VWS V14.01,2013-03-06 06:40:00,
2013-03-06 01:45:00,21.3,14.6,30.09,SE,135,0.0,0.0,75,0.00,,---,0.00,VWS V14.01,2013-03-06 06:45:00,
2013-03-06 01:50:00,21.3,14.6,30.09,SE,135,0.0,0.0,75,0.00,,---,0.00,VWS V14.01,2013-03-06 06:50:00,
2013-03-06 01:55:00,21.0,14.3,30.09,SE,135,0.0,0.0,75,0.00,,---,0.00,VWS V14.01,2013-03-06 06:55:00,
2013-03-06 02:00:00,21.0,14.3,30.09,SE,135,0.0,0.0,75,0.00,,---,0.00,VWS V14.01,2013-03-06 07:00:00,
2013-03-06 02:05:00,21.0,14.3,30.09,SE,135,0.0,0.0,75,0.00,,---,0.00,VWS V14.01,2013-03-06 07:05:00,
2013-03-06 02:10:00,21.0,14.3,30.09,SE,135,0.0,0.0,75,0.00,,---,0.00,VWS V14.01,2013-03-06 07:10:00,
2013-03-06 02:15:00,21.0,14.3,30.09,SE,135,0.0,0.0,75,0.00,,---,0.00,VWS V14.01,2013-03-06 07:15:00,
2013-03-06 02:20:00,20.8,14.1,30.08,SE,135,0.0,0.0,75,0.00,,---,0.00,VWS V14.01,2013-03-06 07:20:00,
2013-03-06 02:25:00,20.8,14.1,30.09,SE,135,0.0,0.0,75,0.00,,---,0.00,VWS V14.01,2013-03-06 07:25:00,
2013-03-06 02:30:00,20.8,14.1,30.08,SE,135,0.0,0.0,75,0.00,,---,0.00,VWS V14.01,2013-03-06 07:30:00,
2013-03-06 02:35:00,20.8,14.1,30.08,SE,135,0.0,0.0,75,0.00,,---,0.00,VWS V14.01,2013-03-06 07:35:00,
2013-03-06 02:40:00,20.8,14.1,30.08,SE,135,0.0,0.0,75,0.00,,---,0.00,VWS V14.01,2013-03-06 07:40:00,
2013-03-06 02:45:00,20.8,14.4,30.08,SE,135,0.0,0.0,76,0.00,,---,0.00,VWS V14.01,2013-03-06 07:45:00,
2013-03-06 02:50:00,20.8,14.4,30.08,SE,135,0.0,0.0,76,0.00,,---,0.00,VWS V14.01,2013-03-06 07:50:00,
2013-03-06 02:55:00,20.6,14.2,30.08,SE,135,0.0,0.0,76,0.00,,---,0.00,VWS V14.01,2013-03-06 07:55:00,
2013-03-06 03:00:00,20.4,14.1,30.08,SE,135,0.0,0.0,76,0.00,,---,0.00,VWS V14.01,2013-03-06 08:00:00,
2013-03-06 03:05:00,20.4,14.1,30.08,SE,135,0.0,0.0,76,0.00,,---,0.00,VWS V14.01,2013-03-06 08:05:00,
2013-03-06 03:10:00,20.4,14.1,30.08,SE,135,0.0,0.0,76,0.00,,---,0.00,VWS V14.01,2013-03-06 08:10:00,
2013-03-06 03:15:00,20.4,14.1,30.08,SE,135,0.0,0.0,76,0.00,,---,0.00,VWS V14.01,2013-03-06 08:15:00,
2013-03-06 03:20:00,20.3,14.0,30.09,SE,135,0.0,0.0,76,0.00,,---,0.00,VWS V14.01,2013-03-06 08:20:00,
2013-03-06 03:25:00,20.1,13.8,30.09,SE,135,0.0,0.0,76,0.00,,---,0.00,VWS V14.01,2013-03-06 08:25:00,
2013-03-06 03:30:00,20.1,13.8,30.09,SE,135,0.0,0.0,76,0.00,,---,0.00,VWS V14.01,2013-03-06 08:30:00,
2013-03-06 03:35:00,20.1,13.8,30.09,SE,135,0.0,0.0,76,0.00,,---,0.00,VWS V14.01,2013-03-06 08:35:00,
2013-03-06 03:40:00,19.9,13.6,30.09,SE,135,0.0,0.0,76,0.00,,---,0.00,VWS V14.01,2013-03-06 08:40:00,
2013-03-06 03:45:00,20.1,13.8,30.08,SE,135,0.0,0.0,76,0.00,,---,0.00,VWS V14.01,2013-03-06 08:45:00,
2013-03-06 03:50:00,20.1,13.8,30.08,SE,135,0.0,0.0,76,0.00,,---,0.00,VWS V14.01,2013-03-06 08:50:00,
2013-03-06 03:55:00,19.9,13.6,30.09,SE,135,0.0,0.0,76,0.00,,---,0.00,VWS V14.01,2013-03-06 08:55:00,
2013-03-06 04:00:00,20.1,14.1,30.09,SE,135,0.0,0.0,77,0.00,,---,0.00,VWS V14.01,2013-03-06 09:00:00,
2013-03-06 04:05:00,20.1,14.1,30.09,SE,135,0.0,0.0,77,0.00,,---,0.00,VWS V14.01,2013-03-06 09:05:00,
2013-03-06 04:12:00,20.1,14.1,30.09,SE,135,0.0,0.0,77,0.00,,---,0.00,VWS V14.01,2013-03-06 09:12:00,
2013-03-06 04:17:00,20.1,14.1,30.09,SE,135,0.0,0.0,77,0.00,,---,0.00,VWS V14.01,2013-03-06 09:17:00,
2013-03-06 04:22:00,20.1,14.1,30.09,SE,135,0.0,0.0,77,0.00,,---,0.00,VWS V14.01,2013-03-06 09:22:00,
2013-03-06 04:27:00,20.1,14.1,30.09,SE,135,0.0,0.0,77,0.00,,---,0.00,VWS V14.01,2013-03-06 09:27:00,
2013-03-06 04:32:00,20.1,14.1,30.09,SE,135,0.0,0.0,77,0.00,,---,0.00,VWS V14.01,2013-03-06 09:32:00,
2013-03-06 04:37:00,20.1,14.1,30.09,SE,135,0.0,0.0,77,0.00,,---,0.00,VWS V14.01,2013-03-06 09:37:00,
2013-03-06 04:42:00,20.1,14.1,30.09,SE,135,0.0,0.0,77,0.00,,---,0.00,VWS V14.01,2013-03-06 09:42:00,